Terminal Aerodrome Forecast
Issued by NWS

Home | Current Version | Previous Version | Text Only | Print | Product List | Glossary On
Versions: 1 2 3 4 5 6 7 8 9 10 11 12 13
698
FTUS42 TJSJ 110541
TAFJMZ
TAF
TJMZ 110541Z 1106/1206 07006KT P6SM SCT040
     FM111530 08010KT P6SM VCSH SCT025 BKN040
     FM112200 06006KT P6SM SCT040
      AMD NOT SKED=

USA.gov is the U.S. government's official web portal to all federal, state and local government web resources and services.